21:25
Airports
History
Links
Donate
Help keep this website running!
PayPal
Bitcoin
This page is community maintained. The information is intended for PC simulator navigation or reference.
Always use approved charts for navigation.
LIPF
Ferrara
Ferrara (LIPF)
Ferrara, Emilia-Romagna, Italy (44124)
(U)
Lat/Lng:44° 48' 55.97" N / 11° 36' 49" E
44.815548 / 11.613611
Elevation:21'ft / 6mMSL
ID / ICAO:LIPF
Runways:2
Longest:09R-27L
Dirt 901m / 2,957ft
METAR17:55 GMT 2017-11-19
Altimeter: 29.91
Visibility: 2.5 statute miles
Wind: 4 knots (from 040°)
Temp: 7°c / 45°f
Humidity: 87.1%

METAR: LIPF 191755Z 04004KT 4000 BR NSC 07/05 Q1013

(Powered by phpweather)
Nearby VORs <50NM
Nearby NDBs
Runway 09R / 27L
Dimensions:901.2 x 60.1m 2957' x 197'ft
Surface:Dirt
Runway 09R [A]Runway 27L [B]
Heading:090°TH 270°TH
Lat:
Lng:
44° 48' 55"N
11° 36' 28.45"E
44° 48' 55"N
11° 37' 9.55"E
Runway 09L / 27R
Dimensions:804.7 x 29.9m 2640' x 98'ft
Surface:Asphalt
Runway 09L [A]Runway 27R [B]
Heading:090°TH 270°TH
Lat:
Lng:
44° 48' 56.95"N
11° 36' 33.02"E
44° 48' 56.95"N
11° 37' 9.55"E
User Notes and Comments
44° 48' 55.97" N / 11° 36' 49" E
Distance To
Airport ID:
Nearby Airports
4 Prati Vecchi di Aguscello 3.3 NM
LIDV ESE 123°
(C) BOLOGNA 25.1 NM
LIPE ( WX ) SW 219°
4 Legnago 26.9 NM
LIDL NW 324°
(U) Lugo di Romagna 31.2 NM
LIDG SSE 157°
4 Ca' Negra 32.3 NM
LIDC NE 55°
(U) Carpi Budrione 36.4 NM
LIDU W 272°
(R) Modena Marzaglia 41.1 NM
LIPM WSW 252°
VFR Chart
Flight Planning at SkyVector.com